createdAt,value
2018-05-12T00:00:52.972Z,14.30
2018-05-12T00:01:53.084Z,14.10
2018-05-12T00:02:53.403Z,13.70
2018-05-12T00:03:52.515Z,15.80
2018-05-12T00:04:52.610Z,17.60
2018-05-12T00:05:52.368Z,14.80
2018-05-12T00:07:13.877Z,15.50
2018-05-12T00:08:14.499Z,15.00
2018-05-12T00:09:14.072Z,17.80
2018-05-12T00:10:14.278Z,16.30
2018-05-12T00:11:13.873Z,15.40
2018-05-12T00:12:14.546Z,14.80
2018-05-12T00:13:14.396Z,15.00
2018-05-12T00:14:13.959Z,13.20
2018-05-12T00:15:35.414Z,14.50
2018-05-12T00:16:36.393Z,15.20
2018-05-12T00:17:35.942Z,17.20
2018-05-12T00:18:36.162Z,15.80
2018-05-12T00:19:36.329Z,19.00
2018-05-12T00:20:36.096Z,14.60
2018-05-12T00:21:36.102Z,15.50
2018-05-12T00:22:36.775Z,13.50
2018-05-12T00:23:35.811Z,15.50
2018-05-12T00:24:35.969Z,14.40
2018-05-12T00:25:35.912Z,15.80
2018-05-12T00:26:35.954Z,15.00
2018-05-12T00:27:58.695Z,19.00
2018-05-12T00:28:58.769Z,18.90
2018-05-12T00:30:19.475Z,13.20
2018-05-12T00:31:19.489Z,15.10
2018-05-12T00:32:40.017Z,14.20
2018-05-12T00:33:40.178Z,18.40
2018-05-12T00:34:39.875Z,16.20
2018-05-12T00:35:40.015Z,15.00
2018-05-12T00:36:40.291Z,14.20
2018-05-12T00:37:40.460Z,19.10
2018-05-12T00:39:00.908Z,18.20
2018-05-12T00:40:22.833Z,18.90
2018-05-12T00:41:22.620Z,15.70
2018-05-12T00:42:43.616Z,17.30
2018-05-12T00:43:44.148Z,16.60
2018-05-12T00:44:44.304Z,18.80
2018-05-12T00:45:44.104Z,19.50
2018-05-12T00:46:43.899Z,17.90
2018-05-12T00:47:44.798Z,23.20
2018-05-12T00:48:44.514Z,17.30
2018-05-12T00:49:44.396Z,16.90
2018-05-12T00:51:05.237Z,18.40
2018-05-12T00:52:05.339Z,14.70
2018-05-12T00:53:05.352Z,17.50
2018-05-12T00:54:05.055Z,22.20
2018-05-12T00:55:06.158Z,18.60
2018-05-12T00:56:05.265Z,16.90
2018-05-12T00:57:04.894Z,19.80
2018-05-12T00:58:05.883Z,16.70
2018-05-12T00:59:05.577Z,16.80
2018-05-12T01:00:46.837Z,19.00
2018-05-12T01:01:47.387Z,20.00
2018-05-12T01:02:47.142Z,14.90
2018-05-12T01:03:46.912Z,15.10
2018-05-12T01:04:48.013Z,18.90
2018-05-12T01:05:47.959Z,18.20
2018-05-12T01:07:07.862Z,16.00
2018-05-12T01:08:08.626Z,17.50
2018-05-12T01:09:08.744Z,16.60
2018-05-12T01:10:08.443Z,14.70
2018-05-12T01:11:08.555Z,18.90
2018-05-12T01:12:08.621Z,16.70
2018-05-12T01:13:08.285Z,15.10
2018-05-12T01:14:08.243Z,17.20
2018-05-12T01:15:07.944Z,19.60
2018-05-12T01:16:08.570Z,17.60
2018-05-12T01:17:28.910Z,14.20
2018-05-12T01:18:50.271Z,17.10
2018-05-12T01:19:51.388Z,15.60
2018-05-12T01:20:50.945Z,17.30
2018-05-12T01:21:51.098Z,17.20
2018-05-12T01:22:50.713Z,15.50
2018-05-12T01:23:51.952Z,15.90
2018-05-12T01:24:50.919Z,16.50
2018-05-12T01:25:50.804Z,15.10
2018-05-12T01:26:50.413Z,15.50
2018-05-12T01:27:50.302Z,15.70
2018-05-12T01:28:50.933Z,16.70
2018-05-12T01:29:50.557Z,15.00
2018-05-12T01:30:50.289Z,19.00
2018-05-12T01:31:50.956Z,16.70
2018-05-12T01:32:51.022Z,17.80
2018-05-12T01:33:50.596Z,15.50
2018-05-12T01:34:50.696Z,15.30
2018-05-12T01:35:50.463Z,15.50
2018-05-12T01:36:51.390Z,18.30
2018-05-12T01:37:50.931Z,16.00
2018-05-12T01:38:50.651Z,15.80
2018-05-12T01:39:50.829Z,18.00
2018-05-12T01:40:50.539Z,16.80
2018-05-12T01:41:51.156Z,14.60
2018-05-12T01:42:51.079Z,16.40
2018-05-12T01:43:50.922Z,18.30
2018-05-12T01:44:51.057Z,19.60
2018-05-12T01:45:51.009Z,17.70
2018-05-12T01:46:50.688Z,17.20
2018-05-12T01:47:50.772Z,18.10
2018-05-12T01:48:50.417Z,15.90
2018-05-12T01:49:51.496Z,19.80
2018-05-12T01:50:50.643Z,17.90
2018-05-12T01:51:50.235Z,17.00
2018-05-12T01:52:51.218Z,18.80
2018-05-12T01:53:50.779Z,19.70
2018-05-12T01:54:50.854Z,23.90
2018-05-12T01:55:50.845Z,19.70
2018-05-12T01:57:11.552Z,17.40
2018-05-12T01:58:11.574Z,16.90
2018-05-12T01:59:11.743Z,16.10
2018-05-12T02:00:11.703Z,22.00
2018-05-12T02:01:11.810Z,16.10
2018-05-12T02:02:11.423Z,17.30
2018-05-12T02:03:12.120Z,17.30
2018-05-12T02:04:11.825Z,18.20
2018-05-12T02:05:11.919Z,15.50
2018-05-12T02:06:11.729Z,16.90
2018-05-12T02:07:11.373Z,17.10
2018-05-12T02:08:11.936Z,17.60
2018-05-12T02:09:32.358Z,16.10
2018-05-12T02:10:32.320Z,19.10
2018-05-12T02:11:32.898Z,18.90
2018-05-12T02:12:32.576Z,22.30
2018-05-12T02:13:32.076Z,18.80
2018-05-12T02:14:33.055Z,17.80
2018-05-12T02:15:32.692Z,17.70
2018-05-12T02:16:53.656Z,17.40
2018-05-12T02:17:53.392Z,21.60
2018-05-12T02:18:54.453Z,18.80
2018-05-12T02:19:54.540Z,16.40
2018-05-12T02:20:53.352Z,19.50
2018-05-12T02:21:54.101Z,16.00
2018-05-12T02:22:54.024Z,17.00
2018-05-12T02:23:54.118Z,22.00
2018-05-12T02:24:53.854Z,20.50
2018-05-12T02:25:53.607Z,16.80
2018-05-12T02:27:34.130Z,21.30
2018-05-12T02:28:55.034Z,21.00
2018-05-12T02:29:55.639Z,17.10
2018-05-12T02:30:55.321Z,17.00
2018-05-12T02:31:55.984Z,21.90
2018-05-12T02:32:56.003Z,16.50
2018-05-12T02:33:55.898Z,18.80
2018-05-12T02:35:16.261Z,22.60
2018-05-12T02:36:19.467Z,19.50
2018-05-12T02:37:17.076Z,16.50
2018-05-12T02:38:16.827Z,19.50
2018-05-12T02:39:16.852Z,19.00
2018-05-12T02:40:17.539Z,19.90
2018-05-12T02:41:17.511Z,18.80
2018-05-12T02:42:17.599Z,20.30
2018-05-12T02:43:16.361Z,20.10
2018-05-12T02:44:17.398Z,19.00
2018-05-12T02:45:17.054Z,20.40
2018-05-12T02:46:16.834Z,17.90
2018-05-12T02:47:16.844Z,18.90
2018-05-12T02:48:16.748Z,20.50
2018-05-12T02:49:16.579Z,18.50
2018-05-12T02:50:16.390Z,17.10
2018-05-12T02:51:38.044Z,21.10
2018-05-12T02:52:38.818Z,17.10
2018-05-12T02:53:59.411Z,19.50
2018-05-12T02:55:00.101Z,19.40
2018-05-12T02:56:00.113Z,18.70
2018-05-12T02:57:00.224Z,23.00
2018-05-12T02:58:00.113Z,19.30
2018-05-12T02:59:00.089Z,17.40
2018-05-12T03:01:01.470Z,20.30
2018-05-12T03:02:01.242Z,23.90
2018-05-12T03:03:01.860Z,24.70
2018-05-12T03:04:01.493Z,21.60
2018-05-12T03:05:01.598Z,19.60
2018-05-12T03:06:01.584Z,21.30
2018-05-12T03:07:01.381Z,20.80
2018-05-12T03:08:02.370Z,20.20
2018-05-12T03:09:01.593Z,21.90
2018-05-12T03:10:01.465Z,25.10
2018-05-12T03:11:02.570Z,22.00
2018-05-12T03:12:01.159Z,18.30
2018-05-12T03:13:02.298Z,21.60
2018-05-12T03:14:01.900Z,21.40
2018-05-12T03:15:01.526Z,24.80
2018-05-12T03:16:01.075Z,18.90
2018-05-12T03:17:01.812Z,21.00
2018-05-12T03:18:01.451Z,19.60
2018-05-12T03:19:21.595Z,21.40
2018-05-12T03:20:22.297Z,19.90
2018-05-12T03:21:22.338Z,21.80
2018-05-12T03:22:22.131Z,24.80
2018-05-12T03:23:21.890Z,20.30
2018-05-12T03:24:22.833Z,23.80
2018-05-12T03:25:22.445Z,19.60
2018-05-12T03:26:43.101Z,23.10
2018-05-12T03:27:43.818Z,21.20
2018-05-12T03:28:43.707Z,27.20
2018-05-12T03:30:04.208Z,23.90
2018-05-12T03:31:04.022Z,24.50
2018-05-12T03:32:04.822Z,24.00
2018-05-12T03:33:45.821Z,19.40
2018-05-12T03:34:46.958Z,20.00
2018-05-12T03:35:46.877Z,23.30
2018-05-12T03:36:46.534Z,20.40
2018-05-12T03:37:46.542Z,20.90
2018-05-12T03:38:46.664Z,20.50
2018-05-12T03:40:06.942Z,22.10
2018-05-12T03:41:07.866Z,20.60
2018-05-12T03:42:07.496Z,20.20
2018-05-12T03:43:07.597Z,18.30
2018-05-12T03:44:07.137Z,20.00
2018-05-12T03:45:28.181Z,19.00
2018-05-12T03:46:28.920Z,21.60
2018-05-12T03:47:28.922Z,19.80
2018-05-12T03:48:28.915Z,21.20
2018-05-12T03:49:28.567Z,19.50
2018-05-12T03:50:28.264Z,19.00
2018-05-12T03:51:49.885Z,23.20
2018-05-12T03:52:50.736Z,17.80
2018-05-12T03:53:50.371Z,18.50
2018-05-12T03:54:50.435Z,20.80
2018-05-12T03:55:50.187Z,22.30
2018-05-12T03:56:50.850Z,18.70
2018-05-12T03:57:50.397Z,22.70
2018-05-12T03:58:50.224Z,22.40
2018-05-12T03:59:50.662Z,22.20
2018-05-12T04:00:50.803Z,20.00
2018-05-12T04:01:50.730Z,19.70
2018-05-12T04:03:31.483Z,18.30
2018-05-12T04:05:14.126Z,18.60
2018-05-12T04:06:14.196Z,21.30
2018-05-12T04:07:14.173Z,19.70
2018-05-12T04:08:56.314Z,18.10
2018-05-12T04:10:16.862Z,19.40
2018-05-12T04:11:16.631Z,20.40
2018-05-12T04:12:17.700Z,20.30
2018-05-12T04:13:37.477Z,21.20
2018-05-12T04:14:37.200Z,21.90
2018-05-12T04:15:38.033Z,19.90
2018-05-12T04:16:38.277Z,24.50
2018-05-12T04:17:37.965Z,22.20
2018-05-12T04:18:38.003Z,19.70
2018-05-12T04:19:38.062Z,19.20
2018-05-12T04:20:38.091Z,20.20
2018-05-12T04:21:38.284Z,22.70
2018-05-12T04:22:57.525Z,19.70
2018-05-12T04:23:58.650Z,22.50
2018-05-12T04:24:58.837Z,21.60
2018-05-12T04:25:57.972Z,22.00
2018-05-12T04:26:57.864Z,22.80
2018-05-12T04:27:58.803Z,19.40
2018-05-12T04:28:57.549Z,20.60
2018-05-12T04:29:58.384Z,22.90
2018-05-12T04:30:58.208Z,24.90
2018-05-12T04:31:58.203Z,24.20
2018-05-12T04:32:58.232Z,20.20
2018-05-12T04:33:58.053Z,25.40
2018-05-12T04:34:58.299Z,23.50
2018-05-12T04:35:58.409Z,23.90
2018-05-12T04:36:58.193Z,24.80
2018-05-12T04:37:58.134Z,23.40
2018-05-12T04:38:58.268Z,21.50
2018-05-12T04:39:58.457Z,21.70
2018-05-12T04:40:58.571Z,21.60
2018-05-12T04:41:58.705Z,23.10
2018-05-12T04:42:58.808Z,22.80
2018-05-12T04:43:57.462Z,20.70
2018-05-12T04:44:58.352Z,24.50
2018-05-12T04:46:02.811Z,21.70
2018-05-12T04:46:58.091Z,24.90
2018-05-12T04:47:57.856Z,23.90
2018-05-12T04:48:58.180Z,20.90
2018-05-12T04:49:57.938Z,21.70
2018-05-12T04:50:58.137Z,20.10
2018-05-12T04:52:18.489Z,22.40
2018-05-12T04:53:20.704Z,23.50
2018-05-12T04:54:19.077Z,20.30
2018-05-12T04:55:19.093Z,20.70
2018-05-12T04:56:19.135Z,19.80
2018-05-12T04:57:18.773Z,24.70
2018-05-12T04:58:18.773Z,23.70
2018-05-12T04:59:19.366Z,21.90
2018-05-12T05:00:19.535Z,19.80
2018-05-12T05:01:19.326Z,20.40
2018-05-12T05:02:19.072Z,19.30
2018-05-12T05:03:19.340Z,19.70
2018-05-12T05:04:19.438Z,21.90
2018-05-12T05:05:19.698Z,21.30
2018-05-12T05:06:19.751Z,21.80
2018-05-12T05:07:19.003Z,22.10
2018-05-12T05:08:39.365Z,19.30
2018-05-12T05:09:39.597Z,26.10
2018-05-12T05:10:39.880Z,19.50
2018-05-12T05:11:39.918Z,20.80
2018-05-12T05:12:39.836Z,22.90
2018-05-12T05:13:39.573Z,22.10
2018-05-12T05:14:39.807Z,23.40
2018-05-12T05:16:02.181Z,22.40
2018-05-12T05:17:00.189Z,23.30
2018-05-12T05:18:01.012Z,20.10
2018-05-12T05:19:21.889Z,19.40
2018-05-12T05:20:22.316Z,21.80
2018-05-12T05:21:22.582Z,22.30
2018-05-12T05:22:22.989Z,21.20
2018-05-12T05:23:22.148Z,19.40
2018-05-12T05:24:22.395Z,22.90
2018-05-12T05:25:43.111Z,23.40
2018-05-12T05:26:44.200Z,20.40
2018-05-12T05:27:44.055Z,20.80
2018-05-12T05:28:44.051Z,24.90
2018-05-12T05:30:05.469Z,23.00
2018-05-12T05:31:05.471Z,20.90
2018-05-12T05:32:05.214Z,20.50
2018-05-12T05:33:05.063Z,21.80
2018-05-12T05:34:05.148Z,20.10
2018-05-12T05:35:05.806Z,23.30
2018-05-12T05:36:06.836Z,20.00
2018-05-12T05:37:08.982Z,17.70
2018-05-12T05:38:05.212Z,22.00
2018-05-12T05:39:05.555Z,19.40
2018-05-12T05:40:04.824Z,18.60
2018-05-12T05:41:12.899Z,22.20
2018-05-12T05:42:04.784Z,19.90
2018-05-12T05:43:05.141Z,19.60
2018-05-12T05:44:06.014Z,19.20
2018-05-12T05:45:06.065Z,18.70
2018-05-12T05:46:05.083Z,22.70
2018-05-12T05:47:04.781Z,19.10
2018-05-12T05:48:05.326Z,24.60
2018-05-12T05:49:06.298Z,18.80
2018-05-12T05:50:05.521Z,19.30
2018-05-12T05:51:09.769Z,19.00
2018-05-12T05:52:04.601Z,18.00
2018-05-12T05:53:05.838Z,18.50
2018-05-12T05:54:04.863Z,17.30
2018-05-12T05:55:05.669Z,20.40
2018-05-12T05:56:05.408Z,20.10
2018-05-12T05:57:06.851Z,17.90
2018-05-12T05:58:04.976Z,16.30
2018-05-12T05:59:10.301Z,15.80
2018-05-12T06:00:05.250Z,18.60
2018-05-12T06:01:05.063Z,19.00
2018-05-12T06:02:05.029Z,16.10
2018-05-12T06:03:04.882Z,16.20
2018-05-12T06:04:05.221Z,15.50
2018-05-12T06:05:05.243Z,18.40
2018-05-12T06:06:05.718Z,20.30
2018-05-12T06:07:05.238Z,17.00
2018-05-12T06:08:05.249Z,22.00
2018-05-12T06:09:05.595Z,16.20
2018-05-12T06:10:04.688Z,18.70
2018-05-12T06:11:05.052Z,14.50
2018-05-12T06:12:04.931Z,17.10
2018-05-12T06:13:04.978Z,15.30
2018-05-12T06:14:05.287Z,17.10
2018-05-12T06:15:46.348Z,15.90
2018-05-12T06:16:47.480Z,16.60
2018-05-12T06:17:47.266Z,14.10
2018-05-12T06:18:47.470Z,17.20
2018-05-12T06:19:47.280Z,16.40
2018-05-12T06:20:46.996Z,17.20
2018-05-12T06:21:47.406Z,15.40
2018-05-12T06:23:08.754Z,17.30
2018-05-12T06:24:09.108Z,15.60
2018-05-12T06:25:09.427Z,14.70
2018-05-12T06:26:08.458Z,14.60
2018-05-12T06:27:29.683Z,15.00
2018-05-12T06:28:29.854Z,16.40
2018-05-12T06:29:30.122Z,15.80
2018-05-12T06:30:30.268Z,14.90
2018-05-12T06:31:30.080Z,15.90
2018-05-12T06:32:29.879Z,14.10
2018-05-12T06:33:29.771Z,16.70
2018-05-12T06:34:30.238Z,15.60
2018-05-12T06:35:30.549Z,13.00
2018-05-12T06:36:29.345Z,17.00
2018-05-12T06:37:29.898Z,12.70
2018-05-12T06:38:29.838Z,12.70
2018-05-12T06:39:30.279Z,12.30
2018-05-12T06:40:32.030Z,13.00
2018-05-12T06:41:30.662Z,11.70
2018-05-12T06:42:30.879Z,13.90
2018-05-12T06:43:30.114Z,11.50
2018-05-12T06:44:30.098Z,15.80
2018-05-12T06:45:51.313Z,14.20
2018-05-12T06:46:51.141Z,14.60
2018-05-12T06:47:51.855Z,14.60
2018-05-12T06:48:52.010Z,12.70
2018-05-12T06:50:01.995Z,13.00
2018-05-12T06:50:51.018Z,10.60
2018-05-12T06:51:51.232Z,12.00
2018-05-12T06:52:51.368Z,11.80
2018-05-12T06:53:51.755Z,16.30
2018-05-12T06:54:51.640Z,14.10
2018-05-12T06:55:51.719Z,15.00
2018-05-12T06:56:52.018Z,11.00
2018-05-12T06:57:51.873Z,13.60
2018-05-12T06:58:51.718Z,9.70
2018-05-12T06:59:51.930Z,15.30
2018-05-12T07:00:51.468Z,10.10
2018-05-12T07:01:52.745Z,13.20
2018-05-12T07:03:33.953Z,13.40
2018-05-12T07:04:35.127Z,16.50
2018-05-12T07:05:34.305Z,15.70
2018-05-12T07:06:34.130Z,11.20
2018-05-12T07:07:35.234Z,12.70
2018-05-12T07:08:34.165Z,12.30
2018-05-12T07:09:34.015Z,11.80
2018-05-12T07:10:36.400Z,11.60
2018-05-12T07:11:34.735Z,13.60
2018-05-12T07:12:34.625Z,10.40
2018-05-12T07:13:55.577Z,11.60
2018-05-12T07:14:56.964Z,12.60
2018-05-12T07:15:56.189Z,10.70
2018-05-12T07:16:55.892Z,12.10
2018-05-12T07:17:55.742Z,12.90
2018-05-12T07:18:56.833Z,12.10
2018-05-12T07:19:55.609Z,10.30
2018-05-12T07:20:56.699Z,11.20
2018-05-12T07:21:57.234Z,11.80
2018-05-12T07:22:56.654Z,10.40
2018-05-12T07:23:56.010Z,14.80
2018-05-12T07:24:55.824Z,12.60
2018-05-12T07:25:55.917Z,11.30
2018-05-12T07:26:55.711Z,11.40
2018-05-12T07:28:17.912Z,12.00
2018-05-12T07:29:18.233Z,12.40
2018-05-12T07:30:19.171Z,11.60
2018-05-12T07:31:20.987Z,13.50
2018-05-12T07:32:17.757Z,16.80
2018-05-12T07:33:17.640Z,14.40
2018-05-12T07:34:18.727Z,10.50
2018-05-12T07:35:18.001Z,12.30
2018-05-12T07:36:17.937Z,15.10
2018-05-12T07:37:17.683Z,15.50
2018-05-12T07:38:17.998Z,15.30
2018-05-12T07:39:39.374Z,15.80
2018-05-12T07:40:39.251Z,10.40
2018-05-12T07:41:39.576Z,13.20
2018-05-12T07:42:39.374Z,12.10
2018-05-12T07:43:39.156Z,10.90
2018-05-12T07:44:39.920Z,11.70
2018-05-12T07:45:40.230Z,12.70
2018-05-12T07:46:39.565Z,13.80
2018-05-12T07:47:39.590Z,16.10
2018-05-12T07:49:00.746Z,13.10
2018-05-12T07:50:01.198Z,11.70
2018-05-12T07:51:01.365Z,10.30
2018-05-12T07:52:01.236Z,11.00
2018-05-12T07:53:01.473Z,13.40
2018-05-12T07:54:00.399Z,12.80
2018-05-12T07:55:21.855Z,14.00
2018-05-12T07:56:22.746Z,11.30
2018-05-12T07:57:23.156Z,11.20
2018-05-12T07:58:22.073Z,15.00
2018-05-12T07:59:22.178Z,13.00
2018-05-12T08:00:22.566Z,15.90
2018-05-12T08:02:03.801Z,11.40
2018-05-12T08:03:04.747Z,12.60
2018-05-12T08:04:04.665Z,10.70
2018-05-12T08:05:04.621Z,12.00
2018-05-12T08:06:26.087Z,29.30
2018-05-12T08:07:26.201Z,16.70
2018-05-12T08:08:46.902Z,10.80
2018-05-12T08:09:48.210Z,10.80
2018-05-12T08:10:47.110Z,11.40
2018-05-12T08:11:47.266Z,12.10
2018-05-12T08:13:08.693Z,12.10
2018-05-12T08:14:08.820Z,11.90
2018-05-12T08:15:09.069Z,13.50
2018-05-12T08:16:09.218Z,16.10
2018-05-12T08:17:29.910Z,11.50
2018-05-12T08:18:30.512Z,11.50
2018-05-12T08:19:50.920Z,14.70
2018-05-12T08:20:52.168Z,11.50
2018-05-12T08:21:51.112Z,10.90
2018-05-12T08:22:50.963Z,12.00
2018-05-12T08:23:51.784Z,12.30
2018-05-12T08:24:51.524Z,13.00
2018-05-12T08:25:51.674Z,13.80
2018-05-12T08:26:52.048Z,11.90
2018-05-12T08:27:51.859Z,13.70
2018-05-12T08:28:51.645Z,12.40
2018-05-12T08:29:51.487Z,11.80
2018-05-12T08:30:51.369Z,12.40
2018-05-12T08:31:51.556Z,12.70
2018-05-12T08:32:51.756Z,12.30
2018-05-12T08:33:51.589Z,14.00
2018-05-12T08:35:33.007Z,10.40
2018-05-12T08:36:32.994Z,12.60
2018-05-12T08:37:34.967Z,12.50
2018-05-12T08:38:33.844Z,13.40
2018-05-12T08:40:16.455Z,12.70
2018-05-12T08:41:16.392Z,12.10
2018-05-12T08:42:16.596Z,10.20
2018-05-12T08:43:16.551Z,13.70
2018-05-12T08:44:16.782Z,10.90
2018-05-12T08:45:17.043Z,12.40
2018-05-12T08:46:38.045Z,10.50
2018-05-12T08:47:37.962Z,11.50
2018-05-12T08:48:38.434Z,12.50
2018-05-12T08:49:59.626Z,12.70
2018-05-12T08:51:20.261Z,10.10
2018-05-12T08:52:20.943Z,10.80
2018-05-12T08:53:21.124Z,14.60
2018-05-12T08:54:42.203Z,10.80
2018-05-12T08:55:52.712Z,11.40
2018-05-12T08:56:47.220Z,19.20
2018-05-12T08:57:42.216Z,85.50
2018-05-12T08:59:03.101Z,85.60
2018-05-12T09:00:03.093Z,27.10
2018-05-12T09:01:05.650Z,16.80
2018-05-12T09:02:03.891Z,30.40
2018-05-12T09:03:04.767Z,109.50
2018-05-12T09:04:04.728Z,75.70
2018-05-12T09:05:03.583Z,32.40
2018-05-12T09:06:03.529Z,22.70
2018-05-12T09:07:03.584Z,82.50
2018-05-12T09:08:03.431Z,72.30
2018-05-12T09:09:03.731Z,38.70
2018-05-12T09:10:24.733Z,18.90
2018-05-12T09:11:47.246Z,11.40
2018-05-12T09:13:08.366Z,36.20
2018-05-12T09:14:08.239Z,27.10
2018-05-12T09:15:08.231Z,32.10
2018-05-12T09:16:08.689Z,23.00
2018-05-12T09:17:35.357Z,12.30
2018-05-12T09:18:31.201Z,12.20
2018-05-12T09:19:31.431Z,11.60
2018-05-12T09:20:31.803Z,14.10
2018-05-12T09:21:32.166Z,11.60
2018-05-12T09:22:31.764Z,12.80
2018-05-12T09:23:32.019Z,17.90
2018-05-12T09:24:32.195Z,18.00
2018-05-12T09:25:31.342Z,26.30
2018-05-12T09:26:52.943Z,25.10
2018-05-12T09:27:53.923Z,17.10
2018-05-12T09:28:52.836Z,13.00
2018-05-12T09:29:53.090Z,12.00
2018-05-12T09:30:52.988Z,11.40
2018-05-12T09:31:53.080Z,13.20
2018-05-12T09:32:53.232Z,12.10
2018-05-12T09:33:53.548Z,11.80
2018-05-12T09:34:52.747Z,10.60
2018-05-12T09:35:52.900Z,10.70
2018-05-12T09:36:53.037Z,14.40
2018-05-12T09:37:53.373Z,11.60
2018-05-12T09:39:34.516Z,15.70
2018-05-12T09:40:57.527Z,10.30
2018-05-12T09:41:56.326Z,12.30
2018-05-12T09:42:56.209Z,11.90
2018-05-12T09:43:56.031Z,11.00
2018-05-12T09:44:56.033Z,10.80
2018-05-12T09:45:56.060Z,13.30
2018-05-12T09:46:56.804Z,10.40
2018-05-12T09:47:56.728Z,11.80
2018-05-12T09:48:56.632Z,12.10
2018-05-12T09:49:56.907Z,9.60
2018-05-12T09:51:17.290Z,11.80
2018-05-12T09:52:19.463Z,12.10
2018-05-12T09:53:18.241Z,11.40
2018-05-12T09:54:18.836Z,11.70
2018-05-12T09:55:17.736Z,13.00
2018-05-12T09:56:17.835Z,11.00
2018-05-12T09:57:17.970Z,11.30
2018-05-12T09:58:18.850Z,13.00
2018-05-12T09:59:17.926Z,11.30
2018-05-12T10:00:18.226Z,13.00
2018-05-12T10:01:17.637Z,12.70
2018-05-12T10:02:17.699Z,16.00
2018-05-12T10:03:17.519Z,11.80
2018-05-12T10:04:17.696Z,12.30
2018-05-12T10:05:18.526Z,10.70
2018-05-12T10:06:17.508Z,13.00
2018-05-12T10:07:17.759Z,11.50
2018-05-12T10:08:17.751Z,14.30
2018-05-12T10:09:18.040Z,11.50
2018-05-12T10:10:18.303Z,13.20
2018-05-12T10:11:17.514Z,14.60
2018-05-12T10:12:17.826Z,16.80
2018-05-12T10:13:18.060Z,13.20
2018-05-12T10:14:17.920Z,10.70
2018-05-12T10:15:18.232Z,12.60
2018-05-12T10:16:18.012Z,16.40
2018-05-12T10:17:17.732Z,12.40
2018-05-12T10:18:19.199Z,12.20
2018-05-12T10:19:17.305Z,12.90
2018-05-12T10:20:17.536Z,14.10
2018-05-12T10:21:18.548Z,11.10
2018-05-12T10:22:17.816Z,14.10
2018-05-12T10:23:18.207Z,13.20
2018-05-12T10:24:17.520Z,10.70
2018-05-12T10:25:17.394Z,11.40
2018-05-12T10:26:37.801Z,10.00
2018-05-12T10:27:38.661Z,11.70
2018-05-12T10:28:38.836Z,9.70
2018-05-12T10:29:38.966Z,9.70
2018-05-12T10:30:38.152Z,9.50
2018-05-12T10:31:39.105Z,12.00
2018-05-12T10:32:38.077Z,9.20
2018-05-12T10:33:58.967Z,9.70
2018-05-12T10:34:59.259Z,10.20
2018-05-12T10:35:59.024Z,12.90
2018-05-12T10:36:58.960Z,9.70
2018-05-12T10:37:58.724Z,9.60
2018-05-12T10:38:58.651Z,10.00
2018-05-12T10:40:19.122Z,10.30
2018-05-12T10:41:40.934Z,11.50
2018-05-12T10:42:42.206Z,11.30
2018-05-12T10:44:02.846Z,12.70
2018-05-12T10:45:02.363Z,9.90
2018-05-12T10:46:02.625Z,11.40
2018-05-12T10:47:02.711Z,10.90
2018-05-12T10:48:02.639Z,11.70
2018-05-12T10:49:02.827Z,12.40
2018-05-12T10:50:02.736Z,10.50
2018-05-12T10:51:02.647Z,11.70
2018-05-12T10:52:02.632Z,11.20
2018-05-12T10:53:02.828Z,9.80
2018-05-12T10:54:03.123Z,13.20
2018-05-12T10:55:02.557Z,11.90
2018-05-12T10:56:02.679Z,10.00
2018-05-12T10:57:02.818Z,10.60
2018-05-12T10:58:02.011Z,12.00
2018-05-12T10:59:01.943Z,11.20
2018-05-12T11:00:02.272Z,9.80
2018-05-12T11:01:02.279Z,9.90
2018-05-12T11:02:02.547Z,10.20
2018-05-12T11:03:02.716Z,10.20
2018-05-12T11:04:02.753Z,8.40
2018-05-12T11:05:03.097Z,11.60
2018-05-12T11:06:02.617Z,13.40
2018-05-12T11:07:02.718Z,13.00
2018-05-12T11:08:03.772Z,12.40
2018-05-12T11:09:02.643Z,9.90
2018-05-12T11:10:03.309Z,10.10
2018-05-12T11:11:23.521Z,13.10
2018-05-12T11:12:24.393Z,9.90
2018-05-12T11:13:44.393Z,12.20
2018-05-12T11:14:46.079Z,11.40
2018-05-12T11:15:45.475Z,10.70
2018-05-12T11:16:45.242Z,10.40
2018-05-12T11:17:45.514Z,10.70
2018-05-12T11:18:44.800Z,11.40
2018-05-12T11:19:46.321Z,12.10
2018-05-12T11:20:45.606Z,12.50
2018-05-12T11:21:45.153Z,11.90
2018-05-12T11:22:46.363Z,12.70
2018-05-12T11:23:44.767Z,15.20
2018-05-12T11:24:44.734Z,12.30
2018-05-12T11:25:44.663Z,12.70
2018-05-12T11:26:45.445Z,13.40
2018-05-12T11:27:44.670Z,16.90
2018-05-12T11:28:45.181Z,9.90
2018-05-12T11:30:07.534Z,11.40
2018-05-12T11:31:06.815Z,12.70
2018-05-12T11:32:07.428Z,14.00
2018-05-12T11:33:26.938Z,12.60
2018-05-12T11:34:28.566Z,10.80
2018-05-12T11:36:10.079Z,13.00
2018-05-12T11:37:10.453Z,11.20
2018-05-12T11:38:10.380Z,10.10
2018-05-12T11:39:10.885Z,12.40
2018-05-12T11:40:10.999Z,9.30
2018-05-12T11:41:11.508Z,14.50
2018-05-12T11:42:10.536Z,11.20
2018-05-12T11:43:10.428Z,8.40
2018-05-12T11:44:10.718Z,8.90
2018-05-12T11:45:52.262Z,11.80
2018-05-12T11:46:52.480Z,9.20
2018-05-12T11:47:52.336Z,9.70
2018-05-12T11:48:52.352Z,12.10
2018-05-12T11:49:52.357Z,10.80
2018-05-12T11:50:52.192Z,12.00
2018-05-12T11:51:52.365Z,11.00
2018-05-12T11:52:52.622Z,11.70
2018-05-12T11:53:52.928Z,12.40
2018-05-12T11:54:53.132Z,14.20
2018-05-12T11:55:52.037Z,9.60
2018-05-12T11:57:12.955Z,12.70
2018-05-12T11:58:12.877Z,10.20
2018-05-12T11:59:12.821Z,9.40
2018-05-12T12:00:13.626Z,15.10
2018-05-12T12:01:13.421Z,10.30
2018-05-12T12:02:14.005Z,11.00
2018-05-12T12:03:13.242Z,9.60
2018-05-12T12:04:13.579Z,10.30
2018-05-12T12:05:13.586Z,7.90
2018-05-12T12:06:13.772Z,9.10
2018-05-12T12:07:13.568Z,10.40
2018-05-12T12:08:14.165Z,10.70
2018-05-12T12:10:36.873Z,9.60
2018-05-12T12:11:38.136Z,9.70
2018-05-12T12:12:57.481Z,10.60
2018-05-12T12:13:58.671Z,11.50
2018-05-12T12:14:58.596Z,12.70
2018-05-12T12:15:57.959Z,11.80
2018-05-12T12:16:59.494Z,11.50
2018-05-12T12:18:19.570Z,10.90
2018-05-12T12:19:20.954Z,10.30
2018-05-12T12:20:20.358Z,11.90
2018-05-12T12:21:20.731Z,10.70
2018-05-12T12:22:20.532Z,11.10
2018-05-12T12:23:19.544Z,11.00
2018-05-12T12:24:20.517Z,12.60
2018-05-12T12:25:20.799Z,11.20
2018-05-12T12:26:19.907Z,8.90
2018-05-12T12:27:20.207Z,10.70
2018-05-12T12:28:20.221Z,10.90
2018-05-12T12:29:20.600Z,18.90
2018-05-12T12:30:42.031Z,10.60
2018-05-12T12:31:41.952Z,9.50
2018-05-12T12:32:42.936Z,11.00
2018-05-12T12:33:41.858Z,10.80
2018-05-12T12:34:42.044Z,8.70
2018-05-12T12:36:03.014Z,9.50
2018-05-12T12:37:02.754Z,9.90
2018-05-12T12:38:02.794Z,10.30
2018-05-12T12:39:02.833Z,12.30
2018-05-12T12:40:02.648Z,10.90
2018-05-12T12:41:03.451Z,8.10
2018-05-12T12:42:03.787Z,9.90
2018-05-12T12:43:02.756Z,11.60
2018-05-12T12:44:23.267Z,7.90
2018-05-12T12:45:24.674Z,8.80
2018-05-12T12:46:23.593Z,8.30
2018-05-12T12:47:23.542Z,9.30
2018-05-12T12:48:23.494Z,10.30
2018-05-12T12:49:24.297Z,8.60
2018-05-12T12:50:24.247Z,8.30
2018-05-12T12:51:24.219Z,7.50
2018-05-12T12:52:24.128Z,6.90
2018-05-12T12:53:24.315Z,8.70
2018-05-12T12:54:24.175Z,8.90
2018-05-12T12:55:23.946Z,7.80
2018-05-12T12:56:23.831Z,8.90
2018-05-12T12:57:24.106Z,8.30
2018-05-12T12:58:23.877Z,9.30
2018-05-12T12:59:24.097Z,8.40
2018-05-12T13:00:24.172Z,9.10
2018-05-12T13:01:24.631Z,9.20
2018-05-12T13:02:23.610Z,9.80
2018-05-12T13:03:23.911Z,10.70
2018-05-12T13:04:23.845Z,8.30
2018-05-12T13:05:23.641Z,10.20
2018-05-12T13:06:23.500Z,12.90
2018-05-12T13:07:43.824Z,7.70
2018-05-12T13:08:44.639Z,7.30
2018-05-12T13:09:44.499Z,9.00
2018-05-12T13:10:44.404Z,9.20
2018-05-12T13:11:44.690Z,8.10
2018-05-12T13:12:44.711Z,7.30
2018-05-12T13:13:44.582Z,8.60
2018-05-12T13:14:44.356Z,11.90
2018-05-12T13:15:44.254Z,7.30
2018-05-12T13:16:44.411Z,8.00
2018-05-12T13:17:44.674Z,7.50
2018-05-12T13:18:44.915Z,6.30
2018-05-12T13:19:43.892Z,13.20
2018-05-12T13:20:43.912Z,8.20
2018-05-12T13:21:44.127Z,8.20
2018-05-12T13:22:44.499Z,8.60
2018-05-12T13:23:44.983Z,8.60
2018-05-12T13:24:44.367Z,6.20
2018-05-12T13:25:44.329Z,9.10
2018-05-12T13:26:44.711Z,7.80
2018-05-12T13:27:44.662Z,13.60
2018-05-12T13:28:44.825Z,8.70
2018-05-12T13:29:45.611Z,7.20
2018-05-12T13:30:44.567Z,9.30
2018-05-12T13:31:44.761Z,10.00
2018-05-12T13:32:44.931Z,7.70
2018-05-12T13:33:44.167Z,12.20
2018-05-12T13:34:44.548Z,7.30